sensor_id;sensor_type;location;lat;lon;timestamp;pressure;altitude;pressure_sealevel;temperature;humidity
43161;BME280;40968;52.342;5.528;2023-06-10T00:01:37;101592.91;;;24.04;40.91
43161;BME280;40968;52.342;5.528;2023-06-10T00:04:04;101390.69;;;22.87;40.33
43161;BME280;40968;52.342;5.528;2023-06-10T00:06:31;101547.28;;;23.73;40.41
43161;BME280;40968;52.342;5.528;2023-06-10T00:09:03;101579.25;;;23.96;40.31
43161;BME280;40968;52.342;5.528;2023-06-10T00:11:31;101581.53;;;23.92;40.30
43161;BME280;40968;52.342;5.528;2023-06-10T00:13:58;101583.94;;;23.87;40.41
43161;BME280;40968;52.342;5.528;2023-06-10T00:16:25;101591.84;;;23.82;40.28
43161;BME280;40968;52.342;5.528;2023-06-10T00:18:52;101535.88;;;23.46;40.67
43161;BME280;40968;52.342;5.528;2023-06-10T00:21:21;101588.31;;;23.73;40.47
43161;BME280;40968;52.342;5.528;2023-06-10T00:23:49;101584.91;;;23.71;40.73
43161;BME280;40968;52.342;5.528;2023-06-10T00:26:17;101347.41;;;22.21;40.84
43161;BME280;40968;52.342;5.528;2023-06-10T00:28:44;101493.38;;;23.12;40.55
43161;BME280;40968;52.342;5.528;2023-06-10T00:31:11;101591.13;;;23.65;40.46
43161;BME280;40968;52.342;5.528;2023-06-10T00:33:38;101537.69;;;23.31;40.39
43161;BME280;40968;52.342;5.528;2023-06-10T00:36:05;101582.97;;;23.57;40.69
43161;BME280;40968;52.342;5.528;2023-06-10T00:38:32;101592.09;;;23.49;40.38
43161;BME280;40968;52.342;5.528;2023-06-10T00:40:58;101362.50;;;22.00;40.46
43161;BME280;40968;52.342;5.528;2023-06-10T00:43:26;101593.00;;;23.41;40.58
43161;BME280;40968;52.342;5.528;2023-06-10T00:45:53;101548.38;;;23.09;40.39
43161;BME280;40968;52.342;5.528;2023-06-10T00:48:20;101293.09;;;21.55;40.76
43161;BME280;40968;52.342;5.528;2023-06-10T00:50:47;101592.72;;;23.28;41.01
43161;BME280;40968;52.342;5.528;2023-06-10T00:53:15;101544.69;;;22.94;41.00
43161;BME280;40968;52.342;5.528;2023-06-10T00:55:41;101591.25;;;23.17;41.45
43161;BME280;40968;52.342;5.528;2023-06-10T00:58:08;101556.19;;;22.89;41.48
43161;BME280;40968;52.342;5.528;2023-06-10T01:00:37;101508.69;;;22.59;41.18
43161;BME280;40968;52.342;5.528;2023-06-10T01:03:03;101590.97;;;23.04;41.11
43161;BME280;40968;52.342;5.528;2023-06-10T01:05:33;101530.53;;;22.59;41.24
43161;BME280;40968;52.342;5.528;2023-06-10T01:08:08;101585.38;;;22.97;41.43
43161;BME280;40968;52.342;5.528;2023-06-10T01:10:41;101549.34;;;22.54;41.64
43161;BME280;40968;52.342;5.528;2023-06-10T01:13:10;101597.53;;;22.86;41.55
43161;BME280;40968;52.342;5.528;2023-06-10T01:15:39;101561.25;;;22.61;41.99
43161;BME280;40968;52.342;5.528;2023-06-10T01:18:07;101459.06;;;21.91;42.08
43161;BME280;40968;52.342;5.528;2023-06-10T01:20:36;101541.00;;;22.39;42.32
43161;BME280;40968;52.342;5.528;2023-06-10T01:23:07;101599.97;;;22.73;42.54
43161;BME280;40968;52.342;5.528;2023-06-10T01:25:36;101543.22;;;22.27;42.19
43161;BME280;40968;52.342;5.528;2023-06-10T01:28:10;101562.00;;;22.38;42.62
43161;BME280;40968;52.342;5.528;2023-06-10T01:30:44;101546.66;;;22.21;42.73
43161;BME280;40968;52.342;5.528;2023-06-10T01:33:15;101397.72;;;21.29;42.80
43161;BME280;40968;52.342;5.528;2023-06-10T01:35:43;101546.34;;;22.15;42.66
43161;BME280;40968;52.342;5.528;2023-06-10T01:38:12;101353.13;;;20.89;42.43
43161;BME280;40968;52.342;5.528;2023-06-10T01:40:41;101453.59;;;21.49;42.50
43161;BME280;40968;52.342;5.528;2023-06-10T01:43:08;101608.25;;;22.40;42.38
43161;BME280;40968;52.342;5.528;2023-06-10T01:45:35;101419.72;;;21.19;42.55
43161;BME280;40968;52.342;5.528;2023-06-10T01:48:02;101617.63;;;22.29;42.37
43161;BME280;40968;52.342;5.528;2023-06-10T01:50:28;101609.94;;;22.24;42.80
43161;BME280;40968;52.342;5.528;2023-06-10T01:52:57;101537.81;;;21.77;42.62
43161;BME280;40968;52.342;5.528;2023-06-10T01:55:26;101572.28;;;21.95;42.56
43161;BME280;40968;52.342;5.528;2023-06-10T01:57:52;101617.63;;;22.12;42.73
43161;BME280;40968;52.342;5.528;2023-06-10T02:00:19;101617.28;;;22.07;42.60
43161;BME280;40968;52.342;5.528;2023-06-10T02:02:46;101612.19;;;22.04;42.95
43161;BME280;40968;52.342;5.528;2023-06-10T02:05:12;101614.22;;;22.02;42.86
43161;BME280;40968;52.342;5.528;2023-06-10T02:07:39;101602.13;;;21.96;43.09
43161;BME280;40968;52.342;5.528;2023-06-10T02:10:07;101616.13;;;21.93;43.66
43161;BME280;40968;52.342;5.528;2023-06-10T02:12:35;101616.09;;;21.85;43.37
43161;BME280;40968;52.342;5.528;2023-06-10T02:15:02;101293.00;;;19.90;43.59
43161;BME280;40968;52.342;5.528;2023-06-10T02:17:29;101562.69;;;21.49;43.72
43161;BME280;40968;52.342;5.528;2023-06-10T02:19:56;101621.72;;;21.75;43.74
43161;BME280;40968;52.342;5.528;2023-06-10T02:22:23;101616.94;;;21.69;43.80
43161;BME280;40968;52.342;5.528;2023-06-10T02:24:50;101500.94;;;20.99;43.85
43161;BME280;40968;52.342;5.528;2023-06-10T02:27:18;101613.53;;;21.67;43.73
43161;BME280;40968;52.342;5.528;2023-06-10T02:29:46;101621.88;;;21.65;44.23
43161;BME280;40968;52.342;5.528;2023-06-10T02:32:13;101625.13;;;21.61;44.34
43161;BME280;40968;52.342;5.528;2023-06-10T02:34:39;101507.69;;;20.86;44.23
43161;BME280;40968;52.342;5.528;2023-06-10T02:37:08;101619.78;;;21.51;44.40
43161;BME280;40968;52.342;5.528;2023-06-10T02:39:34;101551.34;;;21.03;43.92
43161;BME280;40968;52.342;5.528;2023-06-10T02:42:01;101627.41;;;21.39;43.98
43161;BME280;40968;52.342;5.528;2023-06-10T02:44:28;101507.91;;;20.59;45.07
43161;BME280;40968;52.342;5.528;2023-06-10T02:46:56;101553.34;;;20.84;44.56
43161;BME280;40968;52.342;5.528;2023-06-10T02:49:22;101624.66;;;21.23;44.66
43161;BME280;40968;52.342;5.528;2023-06-10T02:51:49;101568.34;;;20.89;44.61
43161;BME280;40968;52.342;5.528;2023-06-10T02:54:18;101401.59;;;19.83;44.90
43161;BME280;40968;52.342;5.528;2023-06-10T02:56:45;101620.88;;;21.15;45.03
43161;BME280;40968;52.342;5.528;2023-06-10T02:59:13;101623.94;;;21.12;45.04
43161;BME280;40968;52.342;5.528;2023-06-10T03:01:40;101576.78;;;20.77;45.87
43161;BME280;40968;52.342;5.528;2023-06-10T03:04:08;101620.50;;;21.02;45.21
43161;BME280;40968;52.342;5.528;2023-06-10T03:06:35;101614.50;;;20.98;45.44
43161;BME280;40968;52.342;5.528;2023-06-10T03:09:03;101502.78;;;20.21;45.50
43161;BME280;40968;52.342;5.528;2023-06-10T03:11:30;101628.09;;;20.90;45.26
43161;BME280;40968;52.342;5.528;2023-06-10T03:13:57;101546.13;;;20.41;45.20
43161;BME280;40968;52.342;5.528;2023-06-10T03:16:23;101206.47;;;18.19;45.61
43161;BME280;40968;52.342;5.528;2023-06-10T03:18:52;101554.56;;;20.29;45.51
43161;BME280;40968;52.342;5.528;2023-06-10T03:21:20;101622.31;;;20.67;46.27
43161;BME280;40968;52.342;5.528;2023-06-10T03:23:48;101555.66;;;20.18;46.50
43161;BME280;40968;52.342;5.528;2023-06-10T03:26:14;101427.94;;;19.38;46.39
43161;BME280;40968;52.342;5.528;2023-06-10T03:28:42;101574.94;;;20.25;46.24
43161;BME280;40968;52.342;5.528;2023-06-10T03:31:08;101622.28;;;20.59;46.52
43161;BME280;40968;52.342;5.528;2023-06-10T03:33:35;101137.19;;;17.61;46.46
43161;BME280;40968;52.342;5.528;2023-06-10T03:36:03;101535.44;;;19.95;46.92
43161;BME280;40968;52.342;5.528;2023-06-10T03:38:31;101571.97;;;20.10;46.89
43161;BME280;40968;52.342;5.528;2023-06-10T03:40:58;101333.47;;;18.69;47.57
43161;BME280;40968;52.342;5.528;2023-06-10T03:43:24;101633.97;;;20.51;47.31
43161;BME280;40968;52.342;5.528;2023-06-10T03:45:51;101644.88;;;20.51;48.05
43161;BME280;40968;52.342;5.528;2023-06-10T03:48:18;101505.09;;;19.63;47.97
43161;BME280;40968;52.342;5.528;2023-06-10T03:50:45;101567.78;;;19.98;47.90
43161;BME280;40968;52.342;5.528;2023-06-10T03:53:13;101637.13;;;20.38;48.09
43161;BME280;40968;52.342;5.528;2023-06-10T03:55:41;101594.56;;;20.11;48.24
43161;BME280;40968;52.342;5.528;2023-06-10T03:58:07;101507.91;;;19.53;48.60
43161;BME280;40968;52.342;5.528;2023-06-10T04:00:34;101485.25;;;19.45;48.42
43161;BME280;40968;52.342;5.528;2023-06-10T04:03:07;101643.56;;;20.37;48.51
43161;BME280;40968;52.342;5.528;2023-06-10T04:05:34;101645.63;;;20.35;48.45
43161;BME280;40968;52.342;5.528;2023-06-10T04:08:01;101650.19;;;20.34;48.88
43161;BME280;40968;52.342;5.528;2023-06-10T04:10:28;101583.03;;;19.91;48.33
43161;BME280;40968;52.342;5.528;2023-06-10T04:12:56;101653.56;;;20.28;48.71
43161;BME280;40968;52.342;5.528;2023-06-10T04:15:22;101381.44;;;18.69;48.25
43161;BME280;40968;52.342;5.528;2023-06-10T04:17:49;101659.16;;;20.27;48.67
43161;BME280;40968;52.342;5.528;2023-06-10T04:20:16;101633.81;;;20.08;48.41
43161;BME280;40968;52.342;5.528;2023-06-10T04:22:43;101659.56;;;20.14;48.58
43161;BME280;40968;52.342;5.528;2023-06-10T04:25:10;101657.09;;;20.02;48.81
43161;BME280;40968;52.342;5.528;2023-06-10T04:27:37;101350.94;;;18.21;48.97
43161;BME280;40968;52.342;5.528;2023-06-10T04:30:06;101662.84;;;19.99;49.12
43161;BME280;40968;52.342;5.528;2023-06-10T04:32:33;101654.91;;;19.88;49.27
43161;BME280;40968;52.342;5.528;2023-06-10T04:35:00;101485.81;;;18.84;49.51
43161;BME280;40968;52.342;5.528;2023-06-10T04:37:26;101423.94;;;18.42;50.06
43161;BME280;40968;52.342;5.528;2023-06-10T04:39:54;101561.56;;;19.15;50.37
43161;BME280;40968;52.342;5.528;2023-06-10T04:42:21;101660.34;;;19.88;50.19
43161;BME280;40968;52.342;5.528;2023-06-10T04:44:48;101616.00;;;19.60;50.26
43161;BME280;40968;52.342;5.528;2023-06-10T04:47:16;101416.78;;;18.41;50.48
43161;BME280;40968;52.342;5.528;2023-06-10T04:49:43;101589.69;;;19.42;50.55
43161;BME280;40968;52.342;5.528;2023-06-10T04:52:09;101605.16;;;19.42;50.62
43161;BME280;40968;52.342;5.528;2023-06-10T04:54:36;101675.13;;;19.85;50.91
43161;BME280;40968;52.342;5.528;2023-06-10T04:57:04;101608.09;;;19.48;50.76
43161;BME280;40968;52.342;5.528;2023-06-10T04:59:31;101621.78;;;19.57;50.73
43161;BME280;40968;52.342;5.528;2023-06-10T05:01:57;101675.13;;;19.85;50.80
43161;BME280;40968;52.342;5.528;2023-06-10T05:04:26;101544.75;;;19.02;50.97
43161;BME280;40968;52.342;5.528;2023-06-10T05:06:52;101669.69;;;19.85;50.87
43161;BME280;40968;52.342;5.528;2023-06-10T05:09:19;101610.50;;;19.51;51.00
43161;BME280;40968;52.342;5.528;2023-06-10T05:11:46;101669.34;;;19.88;51.09
43161;BME280;40968;52.342;5.528;2023-06-10T05:14:13;101630.31;;;19.62;50.81
43161;BME280;40968;52.342;5.528;2023-06-10T05:16:41;101443.50;;;18.36;50.91
43161;BME280;40968;52.342;5.528;2023-06-10T05:19:08;101668.69;;;19.86;51.37
43161;BME280;40968;52.342;5.528;2023-06-10T05:21:36;101598.69;;;19.43;51.14
43161;BME280;40968;52.342;5.528;2023-06-10T05:24:03;101674.97;;;19.87;51.11
43161;BME280;40968;52.342;5.528;2023-06-10T05:26:30;101517.66;;;18.92;51.49
43161;BME280;40968;52.342;5.528;2023-06-10T05:28:58;101627.59;;;19.62;51.24
43161;BME280;40968;52.342;5.528;2023-06-10T05:31:25;101676.44;;;19.99;50.97
43161;BME280;40968;52.342;5.528;2023-06-10T05:33:51;101607.84;;;19.60;50.66
43161;BME280;40968;52.342;5.528;2023-06-10T05:36:18;101667.97;;;20.02;51.01
43161;BME280;40968;52.342;5.528;2023-06-10T05:38:46;101609.28;;;19.64;51.05
43161;BME280;40968;52.342;5.528;2023-06-10T05:41:13;101681.97;;;20.08;51.33
43161;BME280;40968;52.342;5.528;2023-06-10T05:43:39;101512.72;;;19.05;50.98
43161;BME280;40968;52.342;5.528;2023-06-10T05:46:06;101675.69;;;20.07;51.01
43161;BME280;40968;52.342;5.528;2023-06-10T05:48:33;101678.69;;;20.04;51.16
43161;BME280;40968;52.342;5.528;2023-06-10T05:50:59;101680.56;;;20.03;51.51
43161;BME280;40968;52.342;5.528;2023-06-10T05:53:26;101626.66;;;19.71;51.42
43161;BME280;40968;52.342;5.528;2023-06-10T05:55:56;101685.69;;;20.07;51.86
43161;BME280;40968;52.342;5.528;2023-06-10T05:58:24;101681.78;;;20.09;51.83
43161;BME280;40968;52.342;5.528;2023-06-10T06:00:50;101682.34;;;20.13;51.61
43161;BME280;40968;52.342;5.528;2023-06-10T06:03:17;101572.78;;;19.48;51.59
43161;BME280;40968;52.342;5.528;2023-06-10T06:05:44;101683.91;;;20.15;51.84
43161;BME280;40968;52.342;5.528;2023-06-10T06:08:11;101684.75;;;20.16;52.22
43161;BME280;40968;52.342;5.528;2023-06-10T06:10:39;101626.31;;;19.84;51.86
43161;BME280;40968;52.342;5.528;2023-06-10T06:13:07;101693.44;;;20.19;52.00
43161;BME280;40968;52.342;5.528;2023-06-10T06:15:33;101649.09;;;20.01;51.78
43161;BME280;40968;52.342;5.528;2023-06-10T06:18:00;101651.41;;;19.96;52.75
43161;BME280;40968;52.342;5.528;2023-06-10T06:20:27;101666.41;;;20.18;52.17
43161;BME280;40968;52.342;5.528;2023-06-10T06:22:54;101654.28;;;20.12;52.07
43161;BME280;40968;52.342;5.528;2023-06-10T06:25:21;101273.63;;;17.79;51.82
43161;BME280;40968;52.342;5.528;2023-06-10T06:27:48;101628.50;;;19.98;51.94
43161;BME280;40968;52.342;5.528;2023-06-10T06:30:16;101617.00;;;19.86;52.04
43161;BME280;40968;52.342;5.528;2023-06-10T06:32:43;101473.53;;;19.08;52.46
43161;BME280;40968;52.342;5.528;2023-06-10T06:35:09;101631.28;;;20.07;52.53
43161;BME280;40968;52.342;5.528;2023-06-10T06:37:36;101683.59;;;20.45;52.40
43161;BME280;40968;52.342;5.528;2023-06-10T06:40:04;101569.63;;;19.79;52.01
43161;BME280;40968;52.342;5.528;2023-06-10T06:42:30;101560.63;;;19.79;51.75
43161;BME280;40968;52.342;5.528;2023-06-10T06:44:57;101579.84;;;19.95;51.98
43161;BME280;40968;52.342;5.528;2023-06-10T06:47:25;101392.47;;;18.85;51.98
43161;BME280;40968;52.342;5.528;2023-06-10T06:49:52;101629.28;;;20.35;51.72
43161;BME280;40968;52.342;5.528;2023-06-10T06:52:19;101416.47;;;19.08;51.43
43161;BME280;40968;52.342;5.528;2023-06-10T06:54:45;101688.09;;;20.72;51.59
43161;BME280;40968;52.342;5.528;2023-06-10T06:57:12;101681.31;;;20.76;51.91
43161;BME280;40968;52.342;5.528;2023-06-10T06:59:39;101696.47;;;20.79;51.76
43161;BME280;40968;52.342;5.528;2023-06-10T07:02:06;101686.66;;;20.86;51.03
43161;BME280;40968;52.342;5.528;2023-06-10T07:04:34;101680.03;;;20.89;51.05
43161;BME280;40968;52.342;5.528;2023-06-10T07:07:01;101614.75;;;20.52;51.20
43161;BME280;40968;52.342;5.528;2023-06-10T07:09:27;101677.16;;;20.98;51.29
43161;BME280;40968;52.342;5.528;2023-06-10T07:11:54;101687.59;;;21.03;50.85
43161;BME280;40968;52.342;5.528;2023-06-10T07:14:21;101474.00;;;19.84;51.18
43161;BME280;40968;52.342;5.528;2023-06-10T07:16:47;101447.59;;;19.76;50.80
43161;BME280;40968;52.342;5.528;2023-06-10T07:19:14;101361.03;;;19.19;50.48
43161;BME280;40968;52.342;5.528;2023-06-10T07:21:43;101682.25;;;21.28;50.45
43161;BME280;40968;52.342;5.528;2023-06-10T07:24:09;101688.38;;;21.30;50.70
43161;BME280;40968;52.342;5.528;2023-06-10T07:26:36;101500.56;;;20.16;50.36
43161;BME280;40968;52.342;5.528;2023-06-10T07:29:03;101698.00;;;21.42;50.71
43161;BME280;40968;52.342;5.528;2023-06-10T07:31:29;101690.84;;;21.49;50.62
43161;BME280;40968;52.342;5.528;2023-06-10T07:33:56;101585.53;;;20.97;50.26
43161;BME280;40968;52.342;5.528;2023-06-10T07:36:22;101589.50;;;21.03;50.08
43161;BME280;40968;52.342;5.528;2023-06-10T07:38:53;101634.56;;;21.40;49.66
43161;BME280;40968;52.342;5.528;2023-06-10T07:41:22;101624.00;;;21.37;49.68
43161;BME280;40968;52.342;5.528;2023-06-10T07:43:50;101685.84;;;21.88;49.49
43161;BME280;40968;52.342;5.528;2023-06-10T07:46:19;101686.88;;;21.95;49.33
43161;BME280;40968;52.342;5.528;2023-06-10T07:48:46;101684.69;;;21.98;49.21
43161;BME280;40968;52.342;5.528;2023-06-10T07:51:13;101687.06;;;22.01;49.39
43161;BME280;40968;52.342;5.528;2023-06-10T07:53:41;101666.91;;;21.94;49.20
43161;BME280;40968;52.342;5.528;2023-06-10T07:56:09;101417.34;;;20.48;48.93
43161;BME280;40968;52.342;5.528;2023-06-10T07:58:35;101696.13;;;22.18;48.67
43161;BME280;40968;52.342;5.528;2023-06-10T08:01:02;101694.25;;;22.27;49.07
43161;BME280;40968;52.342;5.528;2023-06-10T08:03:29;101322.81;;;19.99;48.54
43161;BME280;40968;52.342;5.528;2023-06-10T08:05:55;101696.16;;;22.43;48.16
43161;BME280;40968;52.342;5.528;2023-06-10T08:08:22;101643.91;;;22.22;47.87
43161;BME280;40968;52.342;5.528;2023-06-10T08:10:48;101433.19;;;21.04;47.78
43161;BME280;40968;52.342;5.528;2023-06-10T08:13:17;101687.94;;;22.68;47.79
43161;BME280;40968;52.342;5.528;2023-06-10T08:15:43;101628.88;;;22.34;47.33
43161;BME280;40968;52.342;5.528;2023-06-10T08:18:10;101686.69;;;22.79;47.39
43161;BME280;40968;52.342;5.528;2023-06-10T08:20:36;101695.75;;;22.88;47.17
43161;BME280;40968;52.342;5.528;2023-06-10T08:23:03;101629.03;;;22.57;46.79
43161;BME280;40968;52.342;5.528;2023-06-10T08:25:30;101700.31;;;23.04;46.98
43161;BME280;40968;52.342;5.528;2023-06-10T08:27:56;101538.16;;;22.15;46.71
43161;BME280;40968;52.342;5.528;2023-06-10T08:30:25;101606.84;;;22.60;46.04
43161;BME280;40968;52.342;5.528;2023-06-10T08:32:51;101698.41;;;23.21;45.82
43161;BME280;40968;52.342;5.528;2023-06-10T08:35:18;101559.28;;;22.38;46.59
43161;BME280;40968;52.342;5.528;2023-06-10T08:37:45;101693.56;;;23.31;46.23
43161;BME280;40968;52.342;5.528;2023-06-10T08:40:12;101654.66;;;23.04;45.70
43161;BME280;40968;52.342;5.528;2023-06-10T08:42:42;101619.69;;;22.99;46.08
43161;BME280;40968;52.342;5.528;2023-06-10T08:45:13;101706.44;;;23.54;45.61
43161;BME280;40968;52.342;5.528;2023-06-10T08:47:44;101691.03;;;23.61;45.29
43161;BME280;40968;52.342;5.528;2023-06-10T08:50:11;101695.41;;;23.70;45.00
43161;BME280;40968;52.342;5.528;2023-06-10T08:52:43;101698.78;;;23.80;45.08
43161;BME280;40968;52.342;5.528;2023-06-10T08:55:12;101699.94;;;23.86;44.51
43161;BME280;40968;52.342;5.528;2023-06-10T08:57:41;101711.22;;;23.91;44.22
43161;BME280;40968;52.342;5.528;2023-06-10T09:00:08;101707.56;;;23.99;44.16
43161;BME280;40968;52.342;5.528;2023-06-10T09:02:36;101710.06;;;24.09;43.77
43161;BME280;40968;52.342;5.528;2023-06-10T09:05:05;101652.53;;;23.85;43.94
43161;BME280;40968;52.342;5.528;2023-06-10T09:07:32;101582.00;;;23.49;43.04
43161;BME280;40968;52.342;5.528;2023-06-10T09:10:01;101703.53;;;24.33;42.54
43161;BME280;40968;52.342;5.528;2023-06-10T09:12:29;101636.03;;;24.02;42.34
43161;BME280;40968;52.342;5.528;2023-06-10T09:14:56;101710.94;;;24.47;41.81
43161;BME280;40968;52.342;5.528;2023-06-10T09:17:23;101705.56;;;24.54;42.08
43161;BME280;40968;52.342;5.528;2023-06-10T09:19:50;101634.19;;;24.17;41.19
43161;BME280;40968;52.342;5.528;2023-06-10T09:22:19;101663.41;;;24.40;41.35
43161;BME280;40968;52.342;5.528;2023-06-10T09:24:47;101710.38;;;24.75;41.17
43161;BME280;40968;52.342;5.528;2023-06-10T09:27:13;101705.81;;;24.82;41.23
43161;BME280;40968;52.342;5.528;2023-06-10T09:29:47;101597.06;;;24.30;41.83
43161;BME280;40968;52.342;5.528;2023-06-10T09:32:18;101647.03;;;24.70;41.43
43161;BME280;40968;52.342;5.528;2023-06-10T09:34:45;101449.59;;;23.59;40.07
43161;BME280;40968;52.342;5.528;2023-06-10T09:37:12;101653.94;;;24.96;39.97
43161;BME280;40968;52.342;5.528;2023-06-10T09:39:41;101553.63;;;24.42;39.54
43161;BME280;40968;52.342;5.528;2023-06-10T09:42:16;101650.69;;;25.07;39.26
43161;BME280;40968;52.342;5.528;2023-06-10T09:44:49;101699.31;;;25.43;39.23
43161;BME280;40968;52.342;5.528;2023-06-10T09:47:20;101622.91;;;25.10;39.62
43161;BME280;40968;52.342;5.528;2023-06-10T09:49:56;101576.91;;;24.76;39.22
43161;BME280;40968;52.342;5.528;2023-06-10T09:52:22;101599.75;;;25.13;39.31
43161;BME280;40968;52.342;5.528;2023-06-10T09:54:50;101696.38;;;25.81;38.99
43161;BME280;40968;52.342;5.528;2023-06-10T09:57:17;101662.88;;;25.71;38.28
43161;BME280;40968;52.342;5.528;2023-06-10T09:59:44;101655.97;;;25.75;37.56
43161;BME280;40968;52.342;5.528;2023-06-10T10:02:13;101604.84;;;25.53;37.82
43161;BME280;40968;52.342;5.528;2023-06-10T10:04:41;101706.09;;;26.21;37.33
43161;BME280;40968;52.342;5.528;2023-06-10T10:07:09;101693.91;;;26.30;36.45
43161;BME280;40968;52.342;5.528;2023-06-10T10:09:36;101703.69;;;26.39;36.44
43161;BME280;40968;52.342;5.528;2023-06-10T10:12:07;101700.22;;;26.52;36.87
43161;BME280;40968;52.342;5.528;2023-06-10T10:14:36;101636.16;;;26.23;35.92
43161;BME280;40968;52.342;5.528;2023-06-10T10:17:04;101668.66;;;26.41;35.65
43161;BME280;40968;52.342;5.528;2023-06-10T10:19:36;101612.72;;;26.27;35.23
43161;BME280;40968;52.342;5.528;2023-06-10T10:22:09;101637.47;;;26.56;34.23
43161;BME280;40968;52.342;5.528;2023-06-10T10:24:38;101677.91;;;26.97;34.58
43161;BME280;40968;52.342;5.528;2023-06-10T10:27:11;101619.63;;;26.73;35.67
43161;BME280;40968;52.342;5.528;2023-06-10T10:29:40;101678.44;;;27.21;34.95
43161;BME280;40968;52.342;5.528;2023-06-10T10:32:08;101680.19;;;27.28;34.32
43161;BME280;40968;52.342;5.528;2023-06-10T10:34:43;101680.69;;;27.39;34.04
43161;BME280;40968;52.342;5.528;2023-06-10T10:37:17;101650.59;;;27.37;33.74
43161;BME280;40968;52.342;5.528;2023-06-10T10:39:44;101627.91;;;27.35;33.00
43161;BME280;40968;52.342;5.528;2023-06-10T10:42:12;101625.25;;;27.49;33.48
43161;BME280;40968;52.342;5.528;2023-06-10T10:44:39;101529.00;;;27.00;33.20
43161;BME280;40968;52.342;5.528;2023-06-10T10:47:08;101590.53;;;27.54;32.96
43161;BME280;40968;52.342;5.528;2023-06-10T10:49:35;101599.88;;;27.73;33.84
43161;BME280;40968;52.342;5.528;2023-06-10T10:52:04;101668.16;;;28.25;32.46
43161;BME280;40968;52.342;5.528;2023-06-10T10:54:35;101662.66;;;28.38;32.86
43161;BME280;40968;52.342;5.528;2023-06-10T10:57:16;101642.28;;;28.39;31.78
43161;BME280;40968;52.342;5.528;2023-06-10T10:59:45;101566.44;;;28.03;32.47
43161;BME280;40968;52.342;5.528;2023-06-10T11:02:15;101657.13;;;28.72;32.85
43161;BME280;40968;52.342;5.528;2023-06-10T11:04:45;101647.75;;;28.73;32.42
43161;BME280;40968;52.342;5.528;2023-06-10T11:07:12;101656.19;;;28.98;31.50
43161;BME280;40968;52.342;5.528;2023-06-10T11:09:57;101607.41;;;28.92;31.30
43161;BME280;40968;52.342;5.528;2023-06-10T11:12:24;101649.72;;;29.31;30.99
43161;BME280;40968;52.342;5.528;2023-06-10T11:14:54;101651.16;;;29.40;29.75
43161;BME280;40968;52.342;5.528;2023-06-10T11:17:21;101615.34;;;29.27;29.86
43161;BME280;40968;52.342;5.528;2023-06-10T11:19:48;101640.59;;;29.69;29.92
43161;BME280;40968;52.342;5.528;2023-06-10T11:22:16;101641.53;;;29.82;29.73
43161;BME280;40968;52.342;5.528;2023-06-10T11:24:49;101642.09;;;29.97;29.95
43161;BME280;40968;52.342;5.528;2023-06-10T11:27:18;101616.19;;;29.98;29.23
43161;BME280;40968;52.342;5.528;2023-06-10T11:29:58;101639.31;;;30.29;29.18
43161;BME280;40968;52.342;5.528;2023-06-10T11:32:29;101605.16;;;30.17;29.31
43161;BME280;40968;52.342;5.528;2023-06-10T11:34:56;101625.81;;;30.39;28.91
43161;BME280;40968;52.342;5.528;2023-06-10T11:37:23;101641.97;;;30.61;28.92
43161;BME280;40968;52.342;5.528;2023-06-10T11:39:53;101648.44;;;30.73;28.65
43161;BME280;40968;52.342;5.528;2023-06-10T11:42:20;101643.84;;;30.86;28.52
43161;BME280;40968;52.342;5.528;2023-06-10T11:44:48;101635.06;;;30.89;27.92
43161;BME280;40968;52.342;5.528;2023-06-10T11:47:15;101582.06;;;30.55;27.43
43161;BME280;40968;52.342;5.528;2023-06-10T11:49:42;101596.34;;;30.70;27.42
43161;BME280;40968;52.342;5.528;2023-06-10T11:52:09;101616.78;;;30.88;26.85
43161;BME280;40968;52.342;5.528;2023-06-10T11:54:36;101602.03;;;30.94;26.17
43161;BME280;40968;52.342;5.528;2023-06-10T11:57:04;101611.56;;;31.17;26.13
43161;BME280;40968;52.342;5.528;2023-06-10T11:59:33;101596.09;;;31.28;26.01
43161;BME280;40968;52.342;5.528;2023-06-10T12:02:00;101622.53;;;31.54;25.75
43161;BME280;40968;52.342;5.528;2023-06-10T12:04:27;101627.16;;;31.60;26.37
43161;BME280;40968;52.342;5.528;2023-06-10T12:06:54;101619.72;;;31.72;25.29
43161;BME280;40968;52.342;5.528;2023-06-10T12:09:22;101613.69;;;31.75;25.30
43161;BME280;40968;52.342;5.528;2023-06-10T12:11:51;101576.41;;;31.48;25.00
43161;BME280;40968;52.342;5.528;2023-06-10T12:14:53;101615.66;;;31.87;24.84
43161;BME280;40968;52.342;5.528;2023-06-10T12:17:20;101618.34;;;32.05;25.48
43161;BME280;40968;52.342;5.528;2023-06-10T12:19:48;101615.84;;;32.28;23.93
43161;BME280;40968;52.342;5.528;2023-06-10T12:22:15;101611.59;;;32.49;25.17
43161;BME280;40968;52.342;5.528;2023-06-10T12:24:45;101612.34;;;32.56;25.33
43161;BME280;40968;52.342;5.528;2023-06-10T12:27:13;101608.69;;;32.67;24.68
43161;BME280;40968;52.342;5.528;2023-06-10T12:29:50;101604.56;;;32.82;24.70
43161;BME280;40968;52.342;5.528;2023-06-10T12:32:20;101541.91;;;32.57;25.53
43161;BME280;40968;52.342;5.528;2023-06-10T12:34:50;101604.63;;;33.11;24.42
43161;BME280;40968;52.342;5.528;2023-06-10T12:37:29;101523.03;;;32.83;25.02
43161;BME280;40968;52.342;5.528;2023-06-10T12:39:55;101568.72;;;33.21;23.78
43161;BME280;40968;52.342;5.528;2023-06-10T12:42:23;101595.06;;;33.47;24.60
43161;BME280;40968;52.342;5.528;2023-06-10T12:44:53;101585.91;;;33.47;24.35
43161;BME280;40968;52.342;5.528;2023-06-10T12:47:29;101560.28;;;33.28;24.55
43161;BME280;40968;52.342;5.528;2023-06-10T12:49:58;101602.16;;;33.55;24.64
43161;BME280;40968;52.342;5.528;2023-06-10T12:52:25;101602.25;;;33.60;25.05
43161;BME280;40968;52.342;5.528;2023-06-10T12:54:52;101594.16;;;33.76;25.03